Aidamar — ICSJ — position and weather

sailwx.info

Track history (hours):
 
Tides and Currents Weather Stations Pressure Air Temp Water Temp Dewpoint Dewpoint Depression Visibility Wind Speed Wind Dir Waves Ship Positions

Aidamar

Last reported at 2014-Nov-01 04:32 UTC. Time now 2014-Nov-01 04:51 UTC.
Position N 39°33' E 002°38'.

Length 253 m; draft 7.3 m.

Type: Ship. MMSI: 247312900.

Date/timePositionNaut miles runAvg speedWind from/ knotsBaromVisibWave heightAir tempDewpointWater temp
2014-Nov-01 04:32N 39°33' E 002°38'3 2.7
2014-Nov-01 03:33N 39°30' E 002°37'8 8.3
2014-Nov-01 02:33N 39°26' E 002°28'8 8.3
2014-Nov-01 01:33N 39°30' E 002°19'9 9.3
2014-Nov-01 00:33N 39°36' E 002°11'1414.3
2014-Oct-31 23:33N 39°51' E 002°11'1515.0
2014-Oct-31 22:33N 40°06' E 002°11'1514.6
2014-Oct-31 21:33N 40°20' E 002°12'1515.0
2014-Oct-31 20:33N 40°35' E 002°12'1515.1
2014-Oct-31 19:33N 40°50' E 002°13'1615.7
2014-Oct-31 18:33N 41°06' E 002°13'16 4.7
2014-Oct-31 15:03N 41°22' E 002°11'3 0.4
2014-Oct-31 07:33N 41°20' E 002°14'  
2014-Oct-28 19:33N 38°41' E 013°35'1515.4
2014-Oct-28 18:33N 38°26' E 013°31'1514.8
2014-Oct-28 17:33N 38°12' E 013°26'5 5.3
2014-Oct-28 16:32N 38°08' E 013°22'0 0.0
2014-Oct-28 15:32N 38°08' E 013°22'0 0.0
2014-Oct-28 14:32N 38°08' E 013°22'0 0.0
2014-Oct-28 13:32N 38°08' E 013°22'0 0.0
2014-Oct-28 12:32N 38°08' E 013°22'0 0.0
2014-Oct-28 11:32N 38°08' E 013°22'0 0.0
2014-Oct-28 10:26N 38°08' E 013°22'0 0.0
2014-Oct-28 09:32N 38°08' E 013°22'0 0.0
2014-Oct-28 08:32N 38°08' E 013°22'0 0.0
2014-Oct-28 07:31N 38°08' E 013°22'0 0.4
2014-Oct-28 06:34N 38°08' E 013°22'5 5.0
2014-Oct-28 05:33N 38°12' E 013°24'1413.8
2014-Oct-28 04:33N 38°17' E 013°07'1616.0
2014-Oct-28 03:33N 38°16' E 012°47'386 7.9
2014-Oct-26 02:27N 38°44' E 004°35'1820.2
2014-Oct-26 01:34N 38°48' E 004°13'2020.4
2014-Oct-26 00:33N 38°54' E 003°48'2020.3
2014-Oct-25 23:33N 38°59' E 003°22'2019.6
2014-Oct-25 22:33N 39°04' E 002°58'1818.2
2014-Oct-25 21:33N 39°19' E 002°44'1414.1
2014-Oct-25 20:33N 39°32' E 002°39'1 1.0
2014-Oct-25 19:32N 39°33' E 002°38'0 0.0
2014-Oct-25 18:32N 39°33' E 002°38'43 2.0
2014-Oct-24 21:33N 40°10' E 002°12'1815.3
2014-Oct-24 20:23N 40°28' E 002°12'1615.1
2014-Oct-24 19:21N 40°44' E 002°13'1315.4
2014-Oct-24 18:30N 40°57' E 002°13'1614.7
2014-Oct-24 17:27N 41°12' E 002°13'  
Track history (hours):
 
Tides and Currents Weather Stations Pressure Air Temp Water Temp Dewpoint Dewpoint Depression Visibility Wind Speed Wind Dir Waves Ship Positions

Aidamar

Last reported at 2014-Nov-01 04:32 UTC. Time now 2014-Nov-01 04:51 UTC.
Position N 39°33' E 002°38'.

Length 253 m; draft 7.3 m.

Type: Ship. MMSI: 247312900.

Date/timePositionNaut miles runAvg speedWind from/ knotsBaromVisibWave heightAir tempDewpointWater temp
2014-Nov-01 04:32N 39°33' E 002°38'3 2.7
2014-Nov-01 03:33N 39°30' E 002°37'8 8.3
2014-Nov-01 02:33N 39°26' E 002°28'8 8.3
2014-Nov-01 01:33N 39°30' E 002°19'9 9.3
2014-Nov-01 00:33N 39°36' E 002°11'1414.3
2014-Oct-31 23:33N 39°51' E 002°11'1515.0
2014-Oct-31 22:33N 40°06' E 002°11'1514.6
2014-Oct-31 21:33N 40°20' E 002°12'1515.0
2014-Oct-31 20:33N 40°35' E 002°12'1515.1
2014-Oct-31 19:33N 40°50' E 002°13'1615.7
2014-Oct-31 18:33N 41°06' E 002°13'16 4.7
2014-Oct-31 15:03N 41°22' E 002°11'3 0.4
2014-Oct-31 07:33N 41°20' E 002°14'  
2014-Oct-28 19:33N 38°41' E 013°35'1515.4
2014-Oct-28 18:33N 38°26' E 013°31'1514.8
2014-Oct-28 17:33N 38°12' E 013°26'5 5.3
2014-Oct-28 16:32N 38°08' E 013°22'0 0.0
2014-Oct-28 15:32N 38°08' E 013°22'0 0.0
2014-Oct-28 14:32N 38°08' E 013°22'0 0.0
2014-Oct-28 13:32N 38°08' E 013°22'0 0.0
2014-Oct-28 12:32N 38°08' E 013°22'0 0.0
2014-Oct-28 11:32N 38°08' E 013°22'0 0.0
2014-Oct-28 10:26N 38°08' E 013°22'0 0.0
2014-Oct-28 09:32N 38°08' E 013°22'0 0.0
2014-Oct-28 08:32N 38°08' E 013°22'0 0.0
2014-Oct-28 07:31N 38°08' E 013°22'0 0.4
2014-Oct-28 06:34N 38°08' E 013°22'5 5.0
2014-Oct-28 05:33N 38°12' E 013°24'1413.8
2014-Oct-28 04:33N 38°17' E 013°07'1616.0
2014-Oct-28 03:33N 38°16' E 012°47'386 7.9
2014-Oct-26 02:27N 38°44' E 004°35'1820.2
2014-Oct-26 01:34N 38°48' E 004°13'2020.4
2014-Oct-26 00:33N 38°54' E 003°48'2020.3
2014-Oct-25 23:33N 38°59' E 003°22'2019.6
2014-Oct-25 22:33N 39°04' E 002°58'1818.2
2014-Oct-25 21:33N 39°19' E 002°44'1414.1
2014-Oct-25 20:33N 39°32' E 002°39'1 1.0
2014-Oct-25 19:32N 39°33' E 002°38'0 0.0
2014-Oct-25 18:32N 39°33' E 002°38'43 2.0
2014-Oct-24 21:33N 40°10' E 002°12'1815.3
2014-Oct-24 20:23N 40°28' E 002°12'1615.1
2014-Oct-24 19:21N 40°44' E 002°13'1315.4
2014-Oct-24 18:30N 40°57' E 002°13'1614.7
2014-Oct-24 17:27N 41°12' E 002°13'  

Dump ship's entire track history